Time;durP1;ratioP1;P1;durP2;ratioP2;P2;SDS_P1;SDS_P2;PMS_P1;PMS_P2;Temp;Humidity;BMP_temperature;BMP_pressure;BME280_temperature;BME280_humidity;BME280_pressure;Samples;Min_cycle;Max_cycle;Signal;HPM_P1;HPM_P2
2023/05/10 00:00:36;;;;;;;13.30;3.05;;;10.60;99.90;;;9.83;100.00;101435.66;4119404;28;20023;-71
2023/05/10 00:02:36;;;;;;;10.93;2.50;;;10.60;99.90;;;9.82;100.00;101440.13;4120313;28;20030;-72
2023/05/10 00:04:37;;;;;;;16.80;3.47;;;10.60;99.90;;;9.77;100.00;101433.56;4120295;28;20093;-71
2023/05/10 00:06:38;;;;;;;18.48;3.08;;;10.60;99.90;;;9.76;100.00;101440.66;4118734;28;20031;-71
2023/05/10 00:08:39;;;;;;;13.18;2.08;;;10.50;99.90;;;9.70;100.00;101446.44;4135164;28;20438;-72
2023/05/10 00:10:40;;;;;;;14.20;2.28;;;10.50;99.90;;;9.65;100.00;101430.19;4118749;28;20043;-71
2023/05/10 00:12:42;;;;;;;16.50;2.90;;;10.40;99.90;;;9.64;100.00;101433.81;4135357;28;20015;-72
2023/05/10 00:14:42;;;;;;;13.00;2.08;;;10.40;99.90;;;9.61;100.00;101438.50;4135065;28;20576;-71
2023/05/10 00:16:43;;;;;;;15.80;2.80;;;10.40;99.90;;;9.62;100.00;101438.34;4119142;28;20027;-71
2023/05/10 00:18:44;;;;;;;10.32;2.60;;;10.40;99.90;;;9.61;100.00;101436.72;4120230;28;20379;-72
2023/05/10 00:20:45;;;;;;;10.90;1.88;;;10.40;99.90;;;9.55;100.00;101431.97;4118751;28;20035;-71
2023/05/10 00:22:46;;;;;;;14.40;2.70;;;10.40;99.90;;;9.53;100.00;101431.25;4118786;28;20101;-72
2023/05/10 00:24:47;;;;;;;14.27;2.42;;;10.30;99.90;;;9.49;100.00;101435.13;4135085;28;20030;-72
2023/05/10 00:26:48;;;;;;;16.15;3.20;;;10.20;99.90;;;9.48;100.00;101430.81;4120388;28;20027;-71
2023/05/10 00:28:49;;;;;;;11.82;2.72;;;10.20;99.90;;;9.44;100.00;101424.97;4134962;28;20030;-71
2023/05/10 00:30:50;;;;;;;15.75;3.10;;;10.20;99.90;;;9.43;100.00;101420.69;4120045;28;20042;-71
2023/05/10 00:32:51;;;;;;;15.52;3.08;;;10.20;99.90;;;9.49;100.00;101416.69;4134970;28;20030;-71
2023/05/10 00:34:52;;;;;;;14.98;3.50;;;10.20;99.90;;;9.46;100.00;101411.69;4120121;28;20093;-71
2023/05/10 00:36:53;;;;;;;13.20;3.05;;;10.20;99.90;;;9.43;100.00;101415.44;4119804;28;20027;-71
2023/05/10 00:38:54;;;;;;;10.65;2.45;;;10.20;99.90;;;9.43;100.00;101404.91;4134836;28;20027;-71
2023/05/10 00:40:54;;;;;;;20.83;3.03;;;10.20;99.90;;;9.45;100.00;101410.03;4118782;28;20022;-72
2023/05/10 00:42:56;;;;;;;14.50;2.88;;;10.20;99.90;;;9.41;100.00;101416.50;4134892;28;20030;-72
2023/05/10 00:44:57;;;;;;;20.40;3.10;;;10.10;99.90;;;9.43;100.00;101410.16;4119852;28;20054;-71
2023/05/10 00:46:59;;;;;;;15.98;3.38;;;10.20;99.90;;;9.44;100.00;101409.19;4120166;28;20478;-71
2023/05/10 00:49:00;;;;;;;22.55;3.17;;;10.20;99.90;;;9.41;100.00;101408.59;4120162;28;20031;-71
2023/05/10 00:51:02;;;;;;;11.25;2.72;;;10.20;99.90;;;9.45;100.00;101410.03;4134588;28;20030;-71
2023/05/10 00:53:03;;;;;;;18.35;2.67;;;10.20;99.90;;;9.47;100.00;101412.53;4134499;28;20464;-71
2023/05/10 00:55:05;;;;;;;14.02;2.92;;;10.20;99.90;;;9.45;100.00;101420.56;4134744;28;20062;-71
2023/05/10 00:57:06;;;;;;;11.13;2.47;;;10.20;99.90;;;9.40;100.00;101410.44;4134557;28;20415;-72
2023/05/10 00:59:10;;;;;;;18.27;2.42;;;10.20;99.90;;;9.34;100.00;101408.31;4134809;28;20061;-72
2023/05/10 01:01:12;;;;;;;16.75;3.00;;;10.20;99.90;;;9.32;100.00;101412.88;4118764;28;20031;-72
2023/05/10 01:03:14;;;;;;;20.90;3.15;;;10.20;99.90;;;9.42;100.00;101426.09;4134788;28;20034;-72
2023/05/10 01:05:15;;;;;;;19.45;3.50;;;10.20;99.90;;;9.35;100.00;101415.25;4118648;28;20386;-72
2023/05/10 01:07:16;;;;;;;14.95;3.40;;;10.10;99.90;;;9.31;100.00;101418.28;4134586;28;20038;-71
2023/05/10 01:09:17;;;;;;;14.45;3.05;;;10.20;99.90;;;9.33;100.00;101413.72;4119781;28;20046;-72
2023/05/10 01:11:18;;;;;;;24.23;4.57;;;10.10;99.90;;;9.40;100.00;101417.50;4118619;28;20062;-72
2023/05/10 01:13:37;;;;;;;14.40;3.28;;;10.10;99.90;;;9.38;100.00;101419.41;4134601;28;20109;-72
2023/05/10 01:15:39;;;;;;;14.98;2.80;;;10.10;99.90;;;9.27;100.00;101416.88;4134472;28;20078;-71
2023/05/10 01:17:43;;;;;;;20.48;3.22;;;10.10;99.90;;;9.30;100.00;101421.88;4134643;28;20030;-71
2023/05/10 01:19:44;;;;;;;21.77;3.65;;;10.10;99.90;;;9.27;100.00;101422.13;4134416;28;20019;-71
2023/05/10 01:22:21;;;;;;;23.55;3.92;;;10.10;99.90;;;9.33;100.00;101416.34;4135397;28;20041;-72
2023/05/10 01:24:46;;;;;;;19.73;3.92;;;10.10;99.90;;;9.35;100.00;101423.13;4122702;28;20034;-71
2023/05/10 01:27:25;;;;;;;17.92;4.00;;;10.10;99.90;;;9.38;100.00;101429.94;4135562;28;20050;-71
2023/05/10 01:29:59;;;;;;;18.63;3.35;;;10.10;99.90;;;9.38;100.00;101424.66;4134541;28;20054;-71
2023/05/10 01:32:15;;;;;;;23.83;3.70;;;10.10;99.90;;;9.38;100.00;101419.41;4122672;28;20109;-71
2023/05/10 01:34:23;;;;;;;25.55;4.82;;;10.10;99.90;;;9.38;100.00;101422.03;4122698;28;20031;-72
2023/05/10 01:36:55;;;;;;;22.50;4.68;;;10.10;99.90;;;9.33;100.00;101413.72;4137165;28;20517;-72
2023/05/10 01:39:05;;;;;;;26.85;4.97;;;10.10;99.90;;;9.39;100.00;101413.19;4122460;28;20041;-71
2023/05/10 01:41:28;;;;;;;15.38;3.50;;;10.10;99.90;;;9.32;100.00;101404.13;4137541;28;20057;-71
2023/05/10 01:43:37;;;;;;;17.88;2.80;;;10.10;99.90;;;9.41;100.00;101419.13;4136495;28;20108;-71
2023/05/10 01:45:50;;;;;;;16.02;3.47;;;10.10;99.90;;;9.38;100.00;101425.50;4136690;28;20112;-72
2023/05/10 01:48:04;;;;;;;22.15;3.72;;;10.20;99.90;;;9.46;100.00;101416.97;4137153;28;20109;-72
2023/05/10 01:50:18;;;;;;;23.35;3.72;;;10.20;99.90;;;9.45;100.00;101415.28;4121052;28;20046;-72
2023/05/10 01:52:26;;;;;;;16.10;3.17;;;10.20;99.90;;;9.47;100.00;101417.81;4136203;28;20023;-71
2023/05/10 01:54:28;;;;;;;16.98;3.83;;;10.20;99.90;;;9.48;100.00;101417.66;4136586;28;20038;-72
2023/05/10 01:56:33;;;;;;;18.02;4.22;;;10.20;99.90;;;9.48;100.00;101419.44;4137124;28;20071;-72
2023/05/10 01:58:35;;;;;;;;;;;10.20;99.90;;;9.39;100.00;101426.34;4120417;28;20034;-72
2023/05/10 02:00:42;;;;;;;21.27;4.68;;;10.20;99.90;;;9.41;100.00;101411.25;4121239;28;19910;-72
2023/05/10 02:02:49;;;;;;;17.13;3.03;;;10.20;99.90;;;9.41;100.00;101414.72;4121305;28;20023;-72
2023/05/10 02:04:51;;;;;;;15.45;3.03;;;10.20;99.90;;;9.38;100.00;101408.88;4137041;28;20026;-72
2023/05/10 02:06:55;;;;;;;15.55;3.42;;;10.20;99.90;;;9.38;100.00;101407.06;4136845;28;20015;-72
2023/05/10 02:08:57;;;;;;;19.00;3.63;;;10.20;99.90;;;9.39;100.00;101415.81;4137021;28;20105;-71
2023/05/10 02:10:59;;;;;;;18.27;3.70;;;10.20;99.90;;;9.38;100.00;101414.13;4136964;28;20061;-72
2023/05/10 02:13:01;;;;;;;21.45;4.30;;;10.20;99.90;;;9.32;100.00;101406.75;4121913;28;20033;-72
2023/05/10 02:15:06;;;;;;;18.08;4.95;;;10.10;99.90;;;9.35;100.00;101409.97;4137211;28;20029;-71
2023/05/10 02:17:07;;;;;;;;;;;10.10;99.90;;;9.21;100.00;101402.44;4137197;28;20030;-72
2023/05/10 02:19:11;;;;;;;17.02;3.53;;;10.10;99.90;;;9.29;100.00;101412.28;4136919;28;19956;-72
2023/05/10 02:21:14;;;;;;;16.77;4.20;;;10.10;99.90;;;9.27;100.00;101411.59;4120304;28;20042;-72
2023/05/10 02:23:18;;;;;;;16.85;3.55;;;10.10;99.90;;;9.28;100.00;101414.13;4136834;28;20026;-72
2023/05/10 02:25:21;;;;;;;23.52;3.75;;;10.00;99.90;;;9.23;100.00;101410.19;4121948;28;20033;-72
2023/05/10 02:27:23;;;;;;;23.40;3.75;;;10.00;99.90;;;9.20;100.00;101407.84;4136490;28;20029;-72
2023/05/10 02:29:27;;;;;;;24.40;3.28;;;10.00;99.90;;;9.19;100.00;101403.53;4120777;28;20027;-72
2023/05/10 02:31:29;;;;;;;18.58;3.15;;;10.00;99.90;;;9.17;100.00;101405.47;4121853;28;20041;-72
2023/05/10 02:33:33;;;;;;;23.35;4.38;;;10.00;99.90;;;9.18;100.00;101412.38;4136480;28;20037;-72
2023/05/10 02:35:35;;;;;;;12.50;2.65;;;9.90;99.90;;;9.21;100.00;101415.59;4136317;28;20029;-72
2023/05/10 02:37:38;;;;;;;24.80;4.30;;;10.00;99.90;;;9.32;100.00;101414.66;4136515;28;20030;-72
2023/05/10 02:39:43;;;;;;;25.67;4.45;;;10.00;99.90;;;9.33;100.00;101400.53;4120807;28;20023;-72
2023/05/10 02:41:48;;;;;;;19.08;4.05;;;10.10;99.90;;;9.52;100.00;101408.53;4121605;28;20026;-71
2023/05/10 02:43:55;;;;;;;;;;;10.20;99.90;;;9.45;100.00;101410.03;4120527;28;20027;-72
2023/05/10 02:45:56;;;;;;;19.58;3.13;;;10.30;99.90;;;9.72;100.00;101417.31;4121805;28;19934;-71
2023/05/10 02:47:58;;;;;;;18.08;4.95;;;10.30;99.90;;;9.70;100.00;101414.00;4121693;28;20030;-72
2023/05/10 02:49:59;;;;;;;23.58;5.00;;;10.40;99.90;;;9.65;100.00;101403.84;4121468;28;20042;-72
2023/05/10 02:52:03;;;;;;;19.10;4.40;;;10.40;99.90;;;9.65;100.00;101411.75;4136211;28;20031;-72
2023/05/10 02:54:12;;;;;;;22.33;4.20;;;10.40;99.90;;;9.71;100.00;101426.19;4136301;28;20022;-72
2023/05/10 02:56:24;;;;;;;20.40;3.92;;;10.40;99.90;;;9.61;100.00;101415.63;4121466;28;20491;-71
2023/05/10 02:58:26;;;;;;;19.58;4.50;;;10.40;99.90;;;9.59;100.00;101412.28;4135280;28;20030;-72
2023/05/10 03:00:27;;;;;;;26.73;3.50;;;10.40;99.90;;;9.61;100.00;101404.25;4136443;28;20393;-72
2023/05/10 03:02:30;;;;;;;29.83;4.80;;;10.40;99.90;;;9.62;100.00;101417.28;4136323;28;20038;-72
2023/05/10 03:04:31;;;;;;;24.00;4.00;;;10.40;99.90;;;9.57;100.00;101414.22;4135956;28;20034;-72
2023/05/10 03:06:31;;;;;;;20.00;4.00;;;10.40;99.90;;;9.59;100.00;101419.38;4103528;29;20039;-72
2023/05/10 03:08:33;;;;;;;28.45;5.63;;;10.30;99.90;;;9.52;100.00;101419.06;4121351;28;20114;-72
2023/05/10 03:10:50;;;;;;;18.52;4.60;;;10.30;99.90;;;9.50;100.00;101413.06;4136226;28;20397;-72
2023/05/10 03:13:41;;;;;;;21.05;4.97;;;10.30;99.90;;;9.52;100.00;101416.44;4119598;28;20037;-72
2023/05/10 03:15:57;;;;;;;21.80;4.25;;;10.20;99.90;;;9.43;100.00;101406.69;4106148;28;20078;-71
2023/05/10 03:18:17;;;;;;;22.85;4.57;;;10.20;99.90;;;9.48;100.00;101407.13;4135730;28;20037;-72
2023/05/10 03:20:43;;;;;;;19.02;4.35;;;10.30;99.90;;;9.44;100.00;101409.19;4135315;28;20030;-72
2023/05/10 03:23:27;;;;;;;26.70;3.95;;;10.30;99.90;;;9.56;100.00;101412.56;4135705;28;20023;-71
2023/05/10 03:25:29;;;;;;;18.45;3.83;;;10.20;99.90;;;9.47;100.00;101407.28;4121073;28;20042;-72
2023/05/10 03:27:31;;;;;;;22.38;3.75;;;10.20;99.90;;;9.43;100.00;101410.16;4135724;28;20038;-71
2023/05/10 03:29:32;;;;;;;24.05;5.55;;;10.20;99.90;;;9.53;100.00;101402.28;4135827;28;20030;-71
2023/05/10 03:31:33;;;;;;;22.15;3.75;;;10.30;99.90;;;9.52;100.00;101405.06;4135931;28;20049;-71
2023/05/10 03:33:34;;;;;;;29.58;4.50;;;10.30;99.90;;;9.50;100.00;101404.38;4135729;28;20033;-71
2023/05/10 03:35:35;;;;;;;19.30;4.13;;;10.30;99.90;;;9.47;100.00;101402.81;4120579;28;20030;-71
2023/05/10 03:37:36;;;;;;;17.85;3.38;;;10.30;99.90;;;9.50;100.00;101397.28;4135879;28;20069;-71
2023/05/10 03:39:37;;;;;;;24.60;4.13;;;10.30;99.90;;;9.53;100.00;101404.91;4119776;28;20098;-71
2023/05/10 03:41:38;;;;;;;29.02;4.95;;;10.30;99.90;;;9.50;100.00;101401.75;4119549;28;20026;-71
2023/05/10 03:43:39;;;;;;;20.00;4.22;;;10.20;99.90;;;9.48;100.00;101398.38;4119390;28;20031;-71
2023/05/10 03:45:40;;;;;;;18.70;4.38;;;10.20;99.90;;;9.44;100.00;101403.91;4119886;28;20073;-71
2023/05/10 03:47:41;;;;;;;21.42;3.60;;;10.20;99.90;;;9.43;100.00;101411.97;4120675;28;20077;-71
2023/05/10 03:49:42;;;;;;;21.50;4.07;;;10.20;99.90;;;9.37;100.00;101394.06;4120470;28;20019;-71
2023/05/10 03:51:42;;;;;;;21.98;4.45;;;10.20;99.90;;;9.38;100.00;101404.44;4119341;28;20390;-71
2023/05/10 03:53:43;;;;;;;24.90;3.90;;;10.20;99.90;;;9.33;100.00;101390.00;4120432;28;20030;-71
2023/05/10 03:55:44;;;;;;;23.63;3.80;;;10.10;99.90;;;9.32;100.00;101404.13;4119770;28;20030;-71
2023/05/10 03:57:45;;;;;;;22.10;3.70;;;10.10;99.90;;;9.43;100.00;101399.63;4119307;28;20085;-71
2023/05/10 03:59:46;;;;;;;25.48;3.83;;;10.10;99.90;;;9.39;100.00;101392.13;4120459;28;20030;-71
2023/05/10 04:01:47;;;;;;;23.02;4.65;;;10.10;99.90;;;9.34;100.00;101389.91;4120129;28;20089;-72
2023/05/10 04:03:48;;;;;;;17.15;3.42;;;10.10;99.90;;;9.32;100.00;101399.69;4119363;28;20027;-72
2023/05/10 04:05:48;;;;;;;22.85;5.15;;;10.10;99.90;;;9.29;100.00;101399.13;4120085;28;20081;-72
2023/05/10 04:07:50;;;;;;;25.40;3.85;;;10.10;99.90;;;9.21;100.00;101394.53;4120242;28;20023;-71
2023/05/10 04:09:52;;;;;;;25.08;3.75;;;10.00;99.90;;;9.19;100.00;101398.25;4115783;28;20113;-72
2023/05/10 04:11:53;;;;;;;23.40;3.95;;;10.00;99.90;;;9.22;100.00;101398.00;4119300;28;20054;-71
2023/05/10 04:13:53;;;;;;;22.85;3.63;;;10.00;99.90;;;9.38;100.00;101398.34;4119171;28;20034;-71
2023/05/10 04:15:54;;;;;;;24.95;4.97;;;10.10;99.90;;;9.45;100.00;101402.13;4120259;28;20030;-72
2023/05/10 04:17:55;;;;;;;18.33;4.40;;;10.10;99.90;;;9.48;100.00;101406.28;4119036;28;20019;-72
2023/05/10 04:19:56;;;;;;;23.00;4.43;;;10.20;99.90;;;9.53;100.00;101401.47;4120289;28;20035;-72
2023/05/10 04:21:57;;;;;;;19.83;4.85;;;10.30;99.90;;;9.57;100.00;101385.25;4119078;28;20511;-71
2023/05/10 04:23:58;;;;;;;25.20;4.80;;;10.30;99.90;;;9.72;100.00;101402.34;4119049;28;20613;-71
2023/05/10 04:26:01;;;;;;;20.45;3.90;;;10.40;99.90;;;9.75;100.00;101393.34;4120082;28;20039;-71
2023/05/10 04:28:02;;;;;;;19.92;4.00;;;10.50;99.90;;;9.83;100.00;101398.75;4119032;28;20038;-71
2023/05/10 04:30:03;;;;;;;18.42;3.72;;;10.60;99.90;;;9.94;100.00;101401.31;4120101;28;20486;-71
2023/05/10 04:32:04;;;;;;;18.73;4.13;;;10.60;99.90;;;10.01;100.00;101407.69;4102815;29;20030;-71
2023/05/10 04:34:05;;;;;;;21.35;5.22;;;10.70;99.90;;;10.09;100.00;101405.22;4119981;28;20058;-71
2023/05/10 04:36:06;;;;;;;21.08;4.70;;;10.80;99.90;;;10.13;100.00;101413.66;4118238;28;20126;-71
2023/05/10 04:38:07;;;;;;;26.52;5.70;;;10.80;99.90;;;10.20;100.00;101412.19;4109240;28;20023;-71
2023/05/10 04:40:09;;;;;;;20.80;4.80;;;10.90;99.90;;;10.22;100.00;101410.25;4113841;28;20023;-71
2023/05/10 04:42:11;;;;;;;16.48;3.85;;;11.00;99.90;;;10.26;100.00;101409.00;4116807;28;20034;-71
2023/05/10 04:44:11;;;;;;;23.10;6.25;;;11.00;99.90;;;10.28;100.00;101405.25;4106989;28;20053;-71
2023/05/10 04:46:12;;;;;;;20.15;3.20;;;11.00;99.90;;;10.28;100.00;101399.13;4120014;28;20483;-71
2023/05/10 04:48:13;;;;;;;17.85;3.65;;;11.00;99.90;;;10.29;100.00;101412.22;4119932;28;20058;-71
2023/05/10 04:50:14;;;;;;;18.80;3.58;;;11.00;99.90;;;10.26;100.00;101407.22;4134686;28;20037;-71
2023/05/10 04:52:17;;;;;;;17.67;3.78;;;11.00;99.90;;;10.26;100.00;101406.38;4102752;29;20047;-71
2023/05/10 04:54:18;;;;;;;18.48;4.30;;;11.00;99.90;;;10.31;100.00;101415.53;4119975;28;20026;-71
2023/05/10 04:56:19;;;;;;;16.95;3.55;;;11.10;99.90;;;10.48;100.00;101406.13;4120173;28;20041;-71
2023/05/10 04:58:20;;;;;;;21.80;3.60;;;11.20;99.90;;;10.63;100.00;101410.00;4123369;28;20102;-71
2023/05/10 05:00:21;;;;;;;18.15;4.03;;;11.30;99.90;;;10.70;100.00;101408.44;4123170;28;20027;-71
2023/05/10 05:02:22;;;;;;;23.80;4.30;;;11.40;99.90;;;10.71;100.00;101407.47;4123366;28;20038;-71
2023/05/10 05:04:23;;;;;;;17.88;3.67;;;11.40;99.90;;;10.78;100.00;101418.31;4138043;28;20019;-71
2023/05/10 05:06:25;;;;;;;21.77;4.32;;;11.40;99.90;;;10.76;100.00;101418.44;4121693;28;20045;-71
2023/05/10 05:08:25;;;;;;;20.98;3.53;;;11.50;99.90;;;10.75;100.00;101419.41;4121783;28;20035;-71
2023/05/10 05:10:26;;;;;;;28.17;4.07;;;11.40;99.90;;;10.73;100.00;101425.78;4111596;28;20089;-71
2023/05/10 05:12:27;;;;;;;19.90;3.72;;;11.40;99.90;;;10.63;100.00;101419.72;4121802;28;20030;-71
2023/05/10 05:14:28;;;;;;;17.25;4.28;;;11.40;99.90;;;10.59;100.00;101416.50;4121801;28;20031;-71
2023/05/10 05:16:31;;;;;;;19.35;3.80;;;11.30;99.90;;;10.50;100.00;101419.97;4122839;28;20034;-71
2023/05/10 05:18:32;;;;;;;16.85;3.38;;;11.30;99.90;;;10.40;100.00;101414.69;4137938;28;20026;-71
2023/05/10 05:20:36;;;;;;;16.20;3.20;;;11.20;99.90;;;10.47;100.00;101423.75;4137594;28;20057;-71
2023/05/10 05:22:37;;;;;;;23.15;4.15;;;11.20;99.90;;;10.40;100.00;101419.13;4137711;28;20030;-71
2023/05/10 05:24:38;;;;;;;20.05;3.55;;;11.20;99.90;;;10.43;100.00;101427.63;4137725;28;20042;-71
2023/05/10 05:26:39;;;;;;;23.45;4.15;;;11.20;99.90;;;10.42;100.00;101427.75;4122859;28;20034;-71
2023/05/10 05:28:40;;;;;;;14.80;3.47;;;11.20;99.90;;;10.44;100.00;101426.66;4122744;28;20039;-71
2023/05/10 05:30:41;;;;;;;17.88;3.03;;;11.20;99.90;;;10.47;100.00;101430.81;4122625;28;20031;-71
2023/05/10 05:32:42;;;;;;;23.23;3.33;;;11.20;99.90;;;10.53;100.00;101440.81;4122524;28;20023;-71
2023/05/10 05:34:45;;;;;;;18.85;3.83;;;11.20;99.90;;;10.57;100.00;101442.22;4122880;28;20030;-71
2023/05/10 05:36:46;;;;;;;19.08;3.63;;;11.20;99.90;;;10.56;100.00;101440.53;4137320;28;20046;-71
2023/05/10 05:38:47;;;;;;;16.10;3.97;;;11.20;99.90;;;10.62;100.00;101449.69;4122625;28;20094;-71
2023/05/10 05:40:48;;;;;;;22.48;3.55;;;11.30;99.90;;;10.63;100.00;101444.28;4122478;28;20050;-71
2023/05/10 05:42:49;;;;;;;16.90;3.25;;;11.30;99.90;;;10.75;100.00;101445.78;4137455;28;20039;-71
2023/05/10 05:44:50;;;;;;;16.25;3.47;;;11.40;99.90;;;10.79;100.00;101451.63;4122264;28;20047;-71
2023/05/10 05:46:51;;;;;;;17.08;3.28;;;11.50;99.90;;;10.89;100.00;101460.38;4122464;28;20046;-71
2023/05/10 05:48:52;;;;;;;14.52;3.60;;;11.50;99.90;;;10.96;100.00;101454.38;4137227;28;20034;-71
2023/05/10 05:50:56;;;;;;;15.05;2.75;;;11.60;99.90;;;11.02;100.00;101456.47;4122163;28;20442;-71
2023/05/10 05:52:57;;;;;;;15.63;3.90;;;11.60;99.90;;;11.10;100.00;101448.69;4122284;28;20027;-71
2023/05/10 05:54:58;;;;;;;16.33;3.03;;;11.70;99.90;;;11.14;100.00;101457.13;4122443;28;20030;-71
2023/05/10 05:57:00;;;;;;;14.25;2.78;;;11.80;99.90;;;11.26;100.00;101457.81;4137133;28;20028;-71
2023/05/10 05:59:01;;;;;;;17.45;4.30;;;11.90;99.90;;;11.50;100.00;101452.84;4137292;28;20105;-71
2023/05/10 06:01:02;;;;;;;13.50;3.35;;;12.10;99.90;;;11.71;100.00;101456.16;4122434;28;20438;-71
2023/05/10 06:03:03;;;;;;;18.08;3.00;;;12.30;99.90;;;11.87;100.00;101456.38;4136991;28;20045;-71
2023/05/10 06:05:05;;;;;;;19.67;3.38;;;12.40;99.90;;;12.01;100.00;101455.84;4136949;28;20109;-71
2023/05/10 06:07:06;;;;;;;13.15;3.47;;;12.60;99.90;;;12.21;100.00;101448.66;4121408;28;20027;-71
2023/05/10 06:09:06;;;;;;;13.88;3.90;;;12.70;99.90;;;12.41;100.00;101452.00;4120868;28;20052;-71
2023/05/10 06:11:07;;;;;;;16.90;4.15;;;12.90;99.90;;;12.54;100.00;101457.75;4122110;28;20030;-72
2023/05/10 06:13:08;;;;;;;17.20;3.63;;;13.10;99.90;;;12.62;100.00;101460.47;4121978;28;20019;-71
2023/05/10 06:15:10;;;;;;;17.77;3.80;;;13.20;99.90;;;12.69;100.00;101454.41;4121969;28;20069;-72
2023/05/10 06:17:11;;;;;;;13.07;2.95;;;13.30;99.90;;;12.80;100.00;101458.63;4137052;28;20026;-71
2023/05/10 06:19:12;;;;;;;14.15;2.28;;;13.30;99.90;;;12.83;100.00;101466.28;4136911;28;20045;-71
2023/05/10 06:21:13;;;;;;;15.38;2.83;;;13.40;99.90;;;12.90;100.00;101475.28;4119869;28;20613;-71
2023/05/10 06:23:13;;;;;;;14.02;3.17;;;13.40;99.90;;;12.86;100.00;101473.06;4121767;28;20027;-71
2023/05/10 06:25:17;;;;;;;11.52;2.50;;;13.40;99.90;;;12.71;100.00;101480.72;4121396;28;20054;-71
2023/05/10 06:27:18;;;;;;;14.73;3.45;;;13.50;99.90;;;12.70;100.00;101471.13;4121700;28;20045;-71
2023/05/10 06:29:19;;;;;;;21.75;3.42;;;13.40;99.90;;;12.76;100.00;101481.94;4136511;28;20042;-71
2023/05/10 06:31:20;;;;;;;20.80;4.03;;;13.50;99.90;;;12.80;100.00;101477.16;4121851;28;20483;-71
2023/05/10 06:33:21;;;;;;;14.25;3.55;;;13.50;99.90;;;12.84;100.00;101485.66;4121610;28;20038;-71
2023/05/10 06:35:22;;;;;;;20.17;4.20;;;13.50;99.90;;;12.98;100.00;101474.50;4121584;28;20103;-71
2023/05/10 06:37:23;;;;;;;17.42;3.15;;;13.60;99.90;;;13.12;100.00;101476.63;4136657;28;20023;-71
2023/05/10 06:39:25;;;;;;;19.30;3.35;;;13.70;99.90;;;13.26;100.00;101476.88;4120405;28;20114;-71
2023/05/10 06:41:25;;;;;;;17.83;4.47;;;13.80;99.90;;;13.27;100.00;101481.22;4120729;28;20030;-71
2023/05/10 06:43:28;;;;;;;21.13;3.58;;;14.00;99.90;;;13.08;100.00;101485.88;4124971;28;20031;-71
2023/05/10 06:45:29;;;;;;;12.05;2.55;;;13.90;99.90;;;13.05;100.00;101480.84;4136113;28;20093;-71
2023/05/10 06:47:30;;;;;;;13.88;3.33;;;13.90;99.90;;;13.13;100.00;101484.44;4121782;28;20446;-71
2023/05/10 06:49:31;;;;;;;10.52;2.55;;;13.80;99.90;;;13.27;100.00;101485.69;4136454;28;20033;-71
2023/05/10 06:51:32;;;;;;;18.65;3.15;;;13.90;99.90;;;13.21;100.00;101484.47;4121224;28;20483;-71
2023/05/10 06:53:33;;;;;;;12.55;2.78;;;13.90;99.90;;;13.40;100.00;101487.91;4121306;28;20077;-71
2023/05/10 06:55:34;;;;;;;18.73;2.85;;;14.00;99.90;;;13.62;100.00;101488.22;4121569;28;20089;-71
2023/05/10 06:57:35;;;;;;;14.93;3.60;;;14.10;99.90;;;13.67;100.00;101491.25;4120978;28;20030;-71
2023/05/10 06:59:36;;;;;;;20.65;4.15;;;14.20;99.90;;;13.76;100.00;101490.28;4121882;28;20062;-71
2023/05/10 07:01:37;;;;;;;16.90;2.95;;;14.30;99.90;;;13.66;100.00;101491.38;4119756;28;20034;-71
2023/05/10 07:03:37;;;;;;;20.60;3.40;;;14.30;99.90;;;13.73;100.00;101489.78;4120037;28;20486;-71
2023/05/10 07:05:38;;;;;;;18.45;3.20;;;14.40;99.90;;;13.76;100.00;101492.09;4135979;28;20038;-71
2023/05/10 07:07:39;;;;;;;17.70;3.97;;;14.40;99.90;;;13.67;100.00;101493.88;4119980;28;20035;-71
2023/05/10 07:09:40;;;;;;;16.52;4.65;;;14.40;99.90;;;13.73;100.00;101487.97;4121233;28;20379;-71
2023/05/10 07:11:41;;;;;;;16.27;3.05;;;14.40;99.90;;;13.72;100.00;101491.59;4119907;28;20082;-71
2023/05/10 07:13:44;;;;;;;11.90;2.38;;;14.40;99.90;;;13.74;100.00;101481.66;4136185;28;20023;-71
2023/05/10 07:15:44;;;;;;;15.32;3.00;;;14.40;99.90;;;13.74;100.00;101481.66;4121163;28;20031;-71
2023/05/10 07:17:45;;;;;;;16.30;3.03;;;14.50;99.90;;;13.53;100.00;101491.00;4121146;28;20031;-71
2023/05/10 07:19:46;;;;;;;16.95;3.60;;;14.40;99.90;;;13.77;100.00;101491.09;4120064;28;20045;-71
2023/05/10 07:21:47;;;;;;;13.00;2.95;;;14.40;99.90;;;13.85;100.00;101488.50;4120894;28;20023;-71
2023/05/10 07:23:48;;;;;;;16.20;3.95;;;14.50;99.90;;;13.89;100.00;101494.34;4120400;28;20078;-71
2023/05/10 07:25:54;;;;;;;12.60;3.08;;;14.50;99.90;;;14.03;100.00;101483.94;4120932;28;20447;-71
2023/05/10 07:27:54;;;;;;;12.88;3.00;;;14.60;99.90;;;14.24;100.00;101487.00;4119914;28;20033;-71
2023/05/10 07:29:56;;;;;;;15.65;2.80;;;14.70;99.90;;;14.49;100.00;101487.06;4120860;28;20022;-71
2023/05/10 07:31:57;;;;;;;21.38;2.83;;;14.90;99.90;;;14.48;100.00;101482.78;4119677;28;20098;-71
2023/05/10 07:33:58;;;;;;;18.83;4.22;;;15.00;99.90;;;14.25;100.00;101483.34;4120761;28;20023;-71
2023/05/10 07:35:58;;;;;;;13.27;2.88;;;15.00;99.90;;;14.30;100.00;101478.41;4135446;28;20425;-71
2023/05/10 07:37:59;;;;;;;13.13;3.50;;;15.00;99.90;;;14.10;100.00;101482.28;4119656;28;20035;-71
2023/05/10 07:40:00;;;;;;;13.13;3.33;;;14.90;99.90;;;14.32;100.00;101478.22;4135835;28;20109;-71
2023/05/10 07:42:02;;;;;;;20.75;4.20;;;14.90;99.90;;;14.26;100.00;101482.34;4119625;28;20027;-71
2023/05/10 07:44:04;;;;;;;15.73;2.42;;;15.00;99.90;;;14.29;100.00;101476.72;4120400;28;20046;-71
2023/05/10 07:46:05;;;;;;;13.82;2.38;;;15.00;99.90;;;14.54;100.00;101482.13;4135789;28;20033;-71
2023/05/10 07:48:06;;;;;;;21.73;3.08;;;15.10;99.90;;;14.77;100.00;101478.66;4135484;28;20482;-71
2023/05/10 07:50:07;;;;;;;20.17;3.40;;;15.30;99.90;;;14.90;100.00;101475.50;4119338;28;20023;-71
2023/05/10 07:52:08;;;;;;;17.95;3.50;;;15.50;99.90;;;14.81;99.59;101473.84;4135534;28;20421;-71
2023/05/10 07:54:09;;;;;;;11.63;3.58;;;15.60;99.90;;;14.98;100.00;101485.28;4135393;28;20038;-71
2023/05/10 07:56:32;;;;;;;16.42;2.92;;;15.60;99.90;;;15.06;99.77;101472.81;4119377;28;20031;-71
2023/05/10 07:58:32;;;;;;;12.27;2.75;;;15.70;99.90;;;14.88;98.42;101482.78;4120403;28;20070;-71
2023/05/10 08:00:34;;;;;;;13.38;2.75;;;15.70;99.90;;;14.83;99.80;101485.13;4120581;28;20510;-71
2023/05/10 08:02:36;;;;;;;14.77;2.63;;;15.60;99.90;;;14.99;99.29;101487.81;4120459;28;20038;-71
2023/05/10 08:04:37;;;;;;;16.25;2.72;;;15.60;99.90;;;15.03;100.00;101481.13;4119236;28;20023;-71
2023/05/10 08:06:37;;;;;;;17.60;3.42;;;15.70;99.90;;;14.88;96.80;101482.78;4118838;28;20038;-71
2023/05/10 08:08:38;;;;;;;14.50;3.20;;;15.60;99.90;;;14.89;97.22;101487.13;4119095;28;20034;-71
2023/05/10 08:10:39;;;;;;;10.02;2.35;;;15.50;99.90;;;14.85;95.60;101489.28;4120547;28;20030;-71
2023/05/10 08:12:40;;;;;;;14.32;2.83;;;15.50;99.90;;;14.80;96.93;101480.97;4120264;28;20085;-71
2023/05/10 08:14:42;;;;;;;10.88;2.65;;;15.40;99.90;;;15.01;96.67;101485.78;4119187;28;20026;-71
2023/05/10 08:16:43;;;;;;;10.63;3.03;;;15.40;99.90;;;15.17;96.97;101488.44;4135166;28;20022;-71
2023/05/10 08:18:46;;;;;;;12.93;3.90;;;15.50;99.90;;;15.08;96.29;101486.81;4120318;28;20394;-71
2023/05/10 08:20:47;;;;;;;9.18;2.15;;;15.60;99.90;;;15.25;95.66;101484.94;4135035;28;20026;-71
2023/05/10 08:22:48;;;;;;;12.82;1.95;;;15.70;99.90;;;15.37;93.88;101486.25;4120295;28;20034;-71
2023/05/10 08:24:49;;;;;;;10.82;2.95;;;15.80;99.90;;;15.35;92.42;101483.75;4120333;28;20027;-71
2023/05/10 08:26:50;;;;;;;8.23;2.55;;;15.90;99.90;;;15.65;91.30;101489.38;4119854;28;20037;-72